sensor_id;sensor_type;location;lat;lon;timestamp;P1;durP1;ratioP1;P2;durP2;ratioP2
71639;SDS011;60912;48.968;10.124;2023-07-24T00:01:53;12.23;;;5.90;;
71639;SDS011;60912;48.968;10.124;2023-07-24T00:04:19;10.17;;;5.57;;
71639;SDS011;60912;48.968;10.124;2023-07-24T00:06:44;9.37;;;6.07;;
71639;SDS011;60912;48.968;10.124;2023-07-24T00:09:09;11.70;;;6.10;;
71639;SDS011;60912;48.968;10.124;2023-07-24T00:11:35;9.87;;;5.50;;
71639;SDS011;60912;48.968;10.124;2023-07-24T00:14:00;10.90;;;5.57;;
71639;SDS011;60912;48.968;10.124;2023-07-24T00:16:25;9.93;;;5.93;;
71639;SDS011;60912;48.968;10.124;2023-07-24T00:18:51;11.27;;;5.60;;
71639;SDS011;60912;48.968;10.124;2023-07-24T00:21:16;9.57;;;6.13;;
71639;SDS011;60912;48.968;10.124;2023-07-24T00:23:41;9.80;;;5.83;;
71639;SDS011;60912;48.968;10.124;2023-07-24T00:26:07;10.07;;;6.07;;
71639;SDS011;60912;48.968;10.124;2023-07-24T00:28:32;10.02;;;5.65;;
71639;SDS011;60912;48.968;10.124;2023-07-24T00:31:00;9.97;;;6.07;;
71639;SDS011;60912;48.968;10.124;2023-07-24T00:33:26;10.15;;;6.68;;
71639;SDS011;60912;48.968;10.124;2023-07-24T00:35:54;10.63;;;6.00;;
71639;SDS011;60912;48.968;10.124;2023-07-24T00:38:21;11.13;;;6.15;;
71639;SDS011;60912;48.968;10.124;2023-07-24T00:40:46;9.50;;;6.00;;
71639;SDS011;60912;48.968;10.124;2023-07-24T00:43:12;11.27;;;5.63;;
71639;SDS011;60912;48.968;10.124;2023-07-24T00:45:37;8.97;;;5.70;;
71639;SDS011;60912;48.968;10.124;2023-07-24T00:48:02;11.67;;;6.13;;
71639;SDS011;60912;48.968;10.124;2023-07-24T00:50:28;10.50;;;5.90;;
71639;SDS011;60912;48.968;10.124;2023-07-24T00:52:54;14.75;;;6.00;;
71639;SDS011;60912;48.968;10.124;2023-07-24T00:55:19;10.15;;;6.00;;
71639;SDS011;60912;48.968;10.124;2023-07-24T00:57:45;10.70;;;5.87;;
71639;SDS011;60912;48.968;10.124;2023-07-24T01:00:11;10.77;;;5.20;;
71639;SDS011;60912;48.968;10.124;2023-07-24T01:02:36;10.40;;;5.90;;
71639;SDS011;60912;48.968;10.124;2023-07-24T01:05:03;11.13;;;6.32;;
71639;SDS011;60912;48.968;10.124;2023-07-24T01:07:29;9.13;;;5.60;;
71639;SDS011;60912;48.968;10.124;2023-07-24T01:09:54;9.60;;;6.40;;
71639;SDS011;60912;48.968;10.124;2023-07-24T01:12:22;10.80;;;6.33;;
71639;SDS011;60912;48.968;10.124;2023-07-24T01:14:52;9.55;;;6.13;;
71639;SDS011;60912;48.968;10.124;2023-07-24T01:17:28;11.25;;;6.75;;
71639;SDS011;60912;48.968;10.124;2023-07-24T01:19:58;10.13;;;6.20;;
71639;SDS011;60912;48.968;10.124;2023-07-24T01:22:25;9.60;;;5.93;;
71639;SDS011;60912;48.968;10.124;2023-07-24T01:27:49;13.43;;;6.78;;
71639;SDS011;60912;48.968;10.124;2023-07-24T01:30:16;9.83;;;6.13;;
71639;SDS011;60912;48.968;10.124;2023-07-24T01:32:43;11.77;;;6.45;;
71639;SDS011;60912;48.968;10.124;2023-07-24T01:35:09;11.20;;;6.57;;
71639;SDS011;60912;48.968;10.124;2023-07-24T01:37:34;10.27;;;6.70;;
71639;SDS011;60912;48.968;10.124;2023-07-24T01:40:01;12.27;;;6.85;;
71639;SDS011;60912;48.968;10.124;2023-07-24T01:42:27;10.70;;;6.37;;
71639;SDS011;60912;48.968;10.124;2023-07-24T01:44:53;11.98;;;6.70;;
71639;SDS011;60912;48.968;10.124;2023-07-24T01:47:19;11.13;;;6.47;;
71639;SDS011;60912;48.968;10.124;2023-07-24T01:49:45;12.13;;;6.40;;
71639;SDS011;60912;48.968;10.124;2023-07-24T01:52:11;12.97;;;6.40;;
71639;SDS011;60912;48.968;10.124;2023-07-24T01:54:36;11.20;;;6.80;;
71639;SDS011;60912;48.968;10.124;2023-07-24T01:57:01;9.70;;;6.03;;
71639;SDS011;60912;48.968;10.124;2023-07-24T01:59:27;10.87;;;6.57;;
71639;SDS011;60912;48.968;10.124;2023-07-24T02:01:52;11.50;;;6.50;;
71639;SDS011;60912;48.968;10.124;2023-07-24T02:04:18;9.80;;;6.15;;
71639;SDS011;60912;48.968;10.124;2023-07-24T02:06:47;11.03;;;6.43;;
71639;SDS011;60912;48.968;10.124;2023-07-24T02:09:13;13.52;;;6.47;;
71639;SDS011;60912;48.968;10.124;2023-07-24T02:11:38;10.80;;;6.83;;
71639;SDS011;60912;48.968;10.124;2023-07-24T02:14:03;12.40;;;6.40;;
71639;SDS011;60912;48.968;10.124;2023-07-24T02:16:29;9.97;;;6.10;;
71639;SDS011;60912;48.968;10.124;2023-07-24T02:18:54;12.43;;;6.60;;
71639;SDS011;60912;48.968;10.124;2023-07-24T02:21:19;13.10;;;5.87;;
71639;SDS011;60912;48.968;10.124;2023-07-24T02:23:45;10.40;;;6.23;;
71639;SDS011;60912;48.968;10.124;2023-07-24T02:26:10;9.50;;;6.07;;
71639;SDS011;60912;48.968;10.124;2023-07-24T02:28:35;12.13;;;6.10;;
71639;SDS011;60912;48.968;10.124;2023-07-24T02:31:00;11.30;;;6.57;;
71639;SDS011;60912;48.968;10.124;2023-07-24T02:33:26;11.77;;;6.60;;
71639;SDS011;60912;48.968;10.124;2023-07-24T02:35:51;13.93;;;5.93;;
71639;SDS011;60912;48.968;10.124;2023-07-24T02:38:17;10.32;;;6.35;;
71639;SDS011;60912;48.968;10.124;2023-07-24T02:40:43;9.70;;;6.10;;
71639;SDS011;60912;48.968;10.124;2023-07-24T02:43:09;8.57;;;5.90;;
71639;SDS011;60912;48.968;10.124;2023-07-24T02:45:35;11.37;;;6.00;;
71639;SDS011;60912;48.968;10.124;2023-07-24T02:48:00;10.60;;;5.57;;
71639;SDS011;60912;48.968;10.124;2023-07-24T02:50:27;11.18;;;6.30;;
71639;SDS011;60912;48.968;10.124;2023-07-24T02:52:52;11.67;;;6.07;;
71639;SDS011;60912;48.968;10.124;2023-07-24T02:55:17;10.43;;;6.40;;
71639;SDS011;60912;48.968;10.124;2023-07-24T02:57:43;10.90;;;6.37;;
71639;SDS011;60912;48.968;10.124;2023-07-24T03:00:08;12.20;;;6.00;;
71639;SDS011;60912;48.968;10.124;2023-07-24T03:02:34;11.57;;;6.57;;
71639;SDS011;60912;48.968;10.124;2023-07-24T03:05:00;9.97;;;6.40;;
71639;SDS011;60912;48.968;10.124;2023-07-24T03:07:25;10.55;;;6.28;;
71639;SDS011;60912;48.968;10.124;2023-07-24T03:09:50;11.87;;;6.63;;
71639;SDS011;60912;48.968;10.124;2023-07-24T03:12:16;9.93;;;6.30;;
71639;SDS011;60912;48.968;10.124;2023-07-24T03:14:41;12.03;;;6.80;;
71639;SDS011;60912;48.968;10.124;2023-07-24T03:17:06;10.77;;;6.03;;
71639;SDS011;60912;48.968;10.124;2023-07-24T03:19:32;11.97;;;6.53;;
71639;SDS011;60912;48.968;10.124;2023-07-24T03:21:57;9.75;;;6.00;;
71639;SDS011;60912;48.968;10.124;2023-07-24T03:24:22;11.33;;;6.40;;
71639;SDS011;60912;48.968;10.124;2023-07-24T03:26:48;12.60;;;6.07;;
71639;SDS011;60912;48.968;10.124;2023-07-24T03:29:13;9.40;;;5.83;;
71639;SDS011;60912;48.968;10.124;2023-07-24T03:31:38;10.87;;;6.90;;
71639;SDS011;60912;48.968;10.124;2023-07-24T03:34:04;10.07;;;6.30;;
71639;SDS011;60912;48.968;10.124;2023-07-24T03:36:29;10.60;;;6.87;;
71639;SDS011;60912;48.968;10.124;2023-07-24T03:38:54;10.77;;;6.68;;
71639;SDS011;60912;48.968;10.124;2023-07-24T03:41:20;10.73;;;6.23;;
71639;SDS011;60912;48.968;10.124;2023-07-24T03:43:45;9.23;;;6.10;;
71639;SDS011;60912;48.968;10.124;2023-07-24T03:46:10;10.80;;;6.50;;
71639;SDS011;60912;48.968;10.124;2023-07-24T03:48:36;10.87;;;6.27;;
71639;SDS011;60912;48.968;10.124;2023-07-24T03:51:01;11.18;;;6.45;;
71639;SDS011;60912;48.968;10.124;2023-07-24T03:53:27;11.10;;;6.00;;
71639;SDS011;60912;48.968;10.124;2023-07-24T03:55:53;11.27;;;6.33;;
71639;SDS011;60912;48.968;10.124;2023-07-24T03:58:19;10.32;;;6.05;;
71639;SDS011;60912;48.968;10.124;2023-07-24T04:00:44;10.05;;;6.38;;
71639;SDS011;60912;48.968;10.124;2023-07-24T04:03:10;10.63;;;7.03;;
71639;SDS011;60912;48.968;10.124;2023-07-24T04:05:36;9.63;;;6.18;;
71639;SDS011;60912;48.968;10.124;2023-07-24T04:08:01;12.37;;;6.83;;
71639;SDS011;60912;48.968;10.124;2023-07-24T04:10:28;10.35;;;6.47;;
71639;SDS011;60912;48.968;10.124;2023-07-24T04:12:53;11.17;;;6.43;;
71639;SDS011;60912;48.968;10.124;2023-07-24T04:15:19;10.77;;;5.85;;
71639;SDS011;60912;48.968;10.124;2023-07-24T04:17:44;11.03;;;6.57;;
71639;SDS011;60912;48.968;10.124;2023-07-24T04:20:10;10.33;;;6.23;;
71639;SDS011;60912;48.968;10.124;2023-07-24T04:22:35;12.43;;;7.00;;
71639;SDS011;60912;48.968;10.124;2023-07-24T04:25:01;10.90;;;6.80;;
71639;SDS011;60912;48.968;10.124;2023-07-24T04:27:26;10.97;;;6.17;;
71639;SDS011;60912;48.968;10.124;2023-07-24T04:29:52;11.40;;;6.57;;
71639;SDS011;60912;48.968;10.124;2023-07-24T04:32:17;9.97;;;6.03;;
71639;SDS011;60912;48.968;10.124;2023-07-24T04:34:43;9.70;;;5.88;;
71639;SDS011;60912;48.968;10.124;2023-07-24T04:37:09;10.23;;;6.23;;
71639;SDS011;60912;48.968;10.124;2023-07-24T04:39:34;9.48;;;5.93;;
71639;SDS011;60912;48.968;10.124;2023-07-24T04:42:00;10.33;;;6.33;;
71639;SDS011;60912;48.968;10.124;2023-07-24T04:44:25;8.97;;;6.03;;
71639;SDS011;60912;48.968;10.124;2023-07-24T04:46:50;9.37;;;6.03;;
71639;SDS011;60912;48.968;10.124;2023-07-24T04:49:16;9.33;;;5.97;;
71639;SDS011;60912;48.968;10.124;2023-07-24T04:51:41;8.73;;;5.47;;
71639;SDS011;60912;48.968;10.124;2023-07-24T04:54:06;9.18;;;5.88;;
71639;SDS011;60912;48.968;10.124;2023-07-24T04:56:32;8.73;;;5.90;;
71639;SDS011;60912;48.968;10.124;2023-07-24T04:58:57;11.03;;;6.03;;
71639;SDS011;60912;48.968;10.124;2023-07-24T05:01:23;10.90;;;5.60;;
71639;SDS011;60912;48.968;10.124;2023-07-24T05:03:48;10.13;;;6.57;;
71639;SDS011;60912;48.968;10.124;2023-07-24T05:06:13;10.00;;;6.10;;
71639;SDS011;60912;48.968;10.124;2023-07-24T05:08:39;10.47;;;6.23;;
71639;SDS011;60912;48.968;10.124;2023-07-24T05:11:04;8.53;;;5.90;;
71639;SDS011;60912;48.968;10.124;2023-07-24T05:13:29;9.63;;;6.33;;
71639;SDS011;60912;48.968;10.124;2023-07-24T05:15:55;10.97;;;6.17;;
71639;SDS011;60912;48.968;10.124;2023-07-24T05:18:20;8.70;;;6.20;;
71639;SDS011;60912;48.968;10.124;2023-07-24T05:20:46;9.33;;;6.10;;
71639;SDS011;60912;48.968;10.124;2023-07-24T05:23:12;10.30;;;6.00;;
71639;SDS011;60912;48.968;10.124;2023-07-24T05:25:38;8.83;;;5.77;;
71639;SDS011;60912;48.968;10.124;2023-07-24T05:28:03;10.68;;;6.40;;
71639;SDS011;60912;48.968;10.124;2023-07-24T05:30:29;11.27;;;6.63;;
71639;SDS011;60912;48.968;10.124;2023-07-24T05:32:54;9.77;;;5.90;;
71639;SDS011;60912;48.968;10.124;2023-07-24T05:35:19;12.07;;;6.47;;
71639;SDS011;60912;48.968;10.124;2023-07-24T05:37:45;12.57;;;6.40;;
71639;SDS011;60912;48.968;10.124;2023-07-24T05:40:10;10.70;;;6.57;;
71639;SDS011;60912;48.968;10.124;2023-07-24T05:42:36;9.23;;;6.63;;
71639;SDS011;60912;48.968;10.124;2023-07-24T05:45:06;8.50;;;5.63;;
71639;SDS011;60912;48.968;10.124;2023-07-24T05:47:32;9.60;;;6.10;;
71639;SDS011;60912;48.968;10.124;2023-07-24T05:49:58;9.33;;;6.17;;
71639;SDS011;60912;48.968;10.124;2023-07-24T05:52:23;9.57;;;6.30;;
71639;SDS011;60912;48.968;10.124;2023-07-24T05:54:49;9.83;;;5.90;;
71639;SDS011;60912;48.968;10.124;2023-07-24T05:57:14;8.93;;;5.60;;
71639;SDS011;60912;48.968;10.124;2023-07-24T05:59:39;9.87;;;6.10;;
71639;SDS011;60912;48.968;10.124;2023-07-24T06:02:05;9.13;;;6.13;;
71639;SDS011;60912;48.968;10.124;2023-07-24T06:04:30;9.80;;;6.17;;
71639;SDS011;60912;48.968;10.124;2023-07-24T06:06:56;10.38;;;6.57;;
71639;SDS011;60912;48.968;10.124;2023-07-24T06:09:21;10.77;;;6.50;;
71639;SDS011;60912;48.968;10.124;2023-07-24T06:11:47;10.37;;;6.30;;
71639;SDS011;60912;48.968;10.124;2023-07-24T06:14:12;12.03;;;6.23;;
71639;SDS011;60912;48.968;10.124;2023-07-24T06:16:38;10.90;;;6.47;;
71639;SDS011;60912;48.968;10.124;2023-07-24T06:19:03;9.07;;;6.20;;
71639;SDS011;60912;48.968;10.124;2023-07-24T06:21:28;9.43;;;5.90;;
71639;SDS011;60912;48.968;10.124;2023-07-24T06:23:54;9.47;;;6.20;;
71639;SDS011;60912;48.968;10.124;2023-07-24T06:26:19;8.75;;;5.85;;
71639;SDS011;60912;48.968;10.124;2023-07-24T06:28:45;11.00;;;5.70;;
71639;SDS011;60912;48.968;10.124;2023-07-24T06:31:10;9.13;;;5.80;;
71639;SDS011;60912;48.968;10.124;2023-07-24T06:33:35;10.00;;;6.13;;
71639;SDS011;60912;48.968;10.124;2023-07-24T06:36:01;11.77;;;6.37;;
71639;SDS011;60912;48.968;10.124;2023-07-24T06:38:26;11.23;;;6.50;;
71639;SDS011;60912;48.968;10.124;2023-07-24T06:40:51;10.05;;;6.45;;
71639;SDS011;60912;48.968;10.124;2023-07-24T06:43:17;13.47;;;6.80;;
71639;SDS011;60912;48.968;10.124;2023-07-24T06:45:42;10.13;;;6.50;;
71639;SDS011;60912;48.968;10.124;2023-07-24T06:48:07;11.27;;;6.43;;
71639;SDS011;60912;48.968;10.124;2023-07-24T06:50:33;10.07;;;6.20;;
71639;SDS011;60912;48.968;10.124;2023-07-24T06:52:58;9.70;;;6.57;;
71639;SDS011;60912;48.968;10.124;2023-07-24T06:55:23;11.93;;;6.60;;
71639;SDS011;60912;48.968;10.124;2023-07-24T06:57:49;10.17;;;6.43;;
71639;SDS011;60912;48.968;10.124;2023-07-24T07:00:14;10.10;;;6.23;;
71639;SDS011;60912;48.968;10.124;2023-07-24T07:02:40;11.13;;;6.47;;
71639;SDS011;60912;48.968;10.124;2023-07-24T07:05:05;9.37;;;6.40;;
71639;SDS011;60912;48.968;10.124;2023-07-24T07:07:31;11.87;;;6.70;;
71639;SDS011;60912;48.968;10.124;2023-07-24T07:09:57;9.77;;;5.97;;
71639;SDS011;60912;48.968;10.124;2023-07-24T07:12:22;11.00;;;6.53;;
71639;SDS011;60912;48.968;10.124;2023-07-24T07:14:48;11.10;;;6.50;;
71639;SDS011;60912;48.968;10.124;2023-07-24T07:17:13;11.23;;;6.65;;
71639;SDS011;60912;48.968;10.124;2023-07-24T07:19:39;9.90;;;6.30;;
71639;SDS011;60912;48.968;10.124;2023-07-24T07:22:04;9.67;;;6.50;;
71639;SDS011;60912;48.968;10.124;2023-07-24T07:24:29;8.80;;;6.18;;
71639;SDS011;60912;48.968;10.124;2023-07-24T07:26:55;11.90;;;6.83;;
71639;SDS011;60912;48.968;10.124;2023-07-24T07:29:20;10.83;;;7.03;;
71639;SDS011;60912;48.968;10.124;2023-07-24T07:31:48;10.43;;;6.53;;
71639;SDS011;60912;48.968;10.124;2023-07-24T07:34:14;10.83;;;6.33;;
71639;SDS011;60912;48.968;10.124;2023-07-24T07:36:39;10.57;;;6.83;;
71639;SDS011;60912;48.968;10.124;2023-07-24T07:39:04;12.10;;;6.40;;
71639;SDS011;60912;48.968;10.124;2023-07-24T07:41:30;11.10;;;6.82;;
71639;SDS011;60912;48.968;10.124;2023-07-24T07:43:55;11.07;;;6.50;;
71639;SDS011;60912;48.968;10.124;2023-07-24T07:46:21;11.63;;;6.47;;
71639;SDS011;60912;48.968;10.124;2023-07-24T07:48:46;11.30;;;6.67;;
71639;SDS011;60912;48.968;10.124;2023-07-24T07:51:12;11.40;;;6.45;;
71639;SDS011;60912;48.968;10.124;2023-07-24T07:53:37;11.60;;;6.60;;
71639;SDS011;60912;48.968;10.124;2023-07-24T07:56:03;10.90;;;6.50;;
71639;SDS011;60912;48.968;10.124;2023-07-24T07:58:29;9.83;;;6.47;;
71639;SDS011;60912;48.968;10.124;2023-07-24T08:00:55;11.20;;;6.45;;
71639;SDS011;60912;48.968;10.124;2023-07-24T08:03:20;11.23;;;6.57;;
71639;SDS011;60912;48.968;10.124;2023-07-24T08:05:46;12.48;;;6.88;;
71639;SDS011;60912;48.968;10.124;2023-07-24T08:08:11;10.70;;;6.30;;
71639;SDS011;60912;48.968;10.124;2023-07-24T08:10:37;11.17;;;6.83;;
71639;SDS011;60912;48.968;10.124;2023-07-24T08:13:04;10.32;;;6.97;;
71639;SDS011;60912;48.968;10.124;2023-07-24T08:15:33;10.40;;;6.73;;
71639;SDS011;60912;48.968;10.124;2023-07-24T08:17:59;14.13;;;6.68;;
71639;SDS011;60912;48.968;10.124;2023-07-24T08:20:25;12.00;;;6.50;;
71639;SDS011;60912;48.968;10.124;2023-07-24T08:22:50;13.55;;;7.07;;
71639;SDS011;60912;48.968;10.124;2023-07-24T08:25:15;13.57;;;7.20;;
71639;SDS011;60912;48.968;10.124;2023-07-24T08:27:41;10.40;;;6.53;;
71639;SDS011;60912;48.968;10.124;2023-07-24T08:30:08;11.73;;;7.00;;
71639;SDS011;60912;48.968;10.124;2023-07-24T08:32:33;11.00;;;6.90;;
71639;SDS011;60912;48.968;10.124;2023-07-24T08:34:59;11.73;;;6.60;;
71639;SDS011;60912;48.968;10.124;2023-07-24T08:37:24;9.55;;;6.75;;
71639;SDS011;60912;48.968;10.124;2023-07-24T08:39:49;12.13;;;6.83;;
71639;SDS011;60912;48.968;10.124;2023-07-24T08:42:15;11.37;;;6.50;;
71639;SDS011;60912;48.968;10.124;2023-07-24T08:44:40;13.60;;;6.70;;
71639;SDS011;60912;48.968;10.124;2023-07-24T08:47:10;12.70;;;6.15;;
71639;SDS011;60912;48.968;10.124;2023-07-24T08:49:39;11.45;;;6.70;;
71639;SDS011;60912;48.968;10.124;2023-07-24T08:52:07;11.05;;;6.50;;
71639;SDS011;60912;48.968;10.124;2023-07-24T08:54:34;18.50;;;6.93;;
71639;SDS011;60912;48.968;10.124;2023-07-24T08:57:03;14.23;;;6.90;;
71639;SDS011;60912;48.968;10.124;2023-07-24T08:59:31;12.00;;;6.63;;
71639;SDS011;60912;48.968;10.124;2023-07-24T09:01:59;11.73;;;6.55;;
71639;SDS011;60912;48.968;10.124;2023-07-24T09:04:25;11.93;;;6.13;;
71639;SDS011;60912;48.968;10.124;2023-07-24T09:06:50;10.15;;;6.25;;
71639;SDS011;60912;48.968;10.124;2023-07-24T09:09:16;11.43;;;6.27;;
71639;SDS011;60912;48.968;10.124;2023-07-24T09:11:48;12.32;;;6.60;;
71639;SDS011;60912;48.968;10.124;2023-07-24T09:17:10;10.63;;;6.25;;
71639;SDS011;60912;48.968;10.124;2023-07-24T09:19:36;11.07;;;5.90;;
71639;SDS011;60912;48.968;10.124;2023-07-24T09:22:10;11.48;;;6.22;;
71639;SDS011;60912;48.968;10.124;2023-07-24T09:24:50;10.38;;;6.05;;
71639;SDS011;60912;48.968;10.124;2023-07-24T09:27:17;9.88;;;6.22;;
71639;SDS011;60912;48.968;10.124;2023-07-24T09:29:42;8.73;;;5.78;;
71639;SDS011;60912;48.968;10.124;2023-07-24T09:32:17;10.23;;;6.30;;
71639;SDS011;60912;48.968;10.124;2023-07-24T09:34:46;13.10;;;6.20;;
71639;SDS011;60912;48.968;10.124;2023-07-24T09:37:22;10.87;;;5.47;;
71639;SDS011;60912;48.968;10.124;2023-07-24T09:39:55;9.70;;;6.10;;
71639;SDS011;60912;48.968;10.124;2023-07-24T09:42:30;10.97;;;6.17;;
71639;SDS011;60912;48.968;10.124;2023-07-24T09:44:57;9.65;;;6.25;;
71639;SDS011;60912;48.968;10.124;2023-07-24T09:47:22;9.82;;;6.32;;
71639;SDS011;60912;48.968;10.124;2023-07-24T09:49:51;8.30;;;5.33;;
71639;SDS011;60912;48.968;10.124;2023-07-24T09:52:18;8.80;;;5.65;;
71639;SDS011;60912;48.968;10.124;2023-07-24T09:57:36;8.80;;;6.00;;
71639;SDS011;60912;48.968;10.124;2023-07-24T10:00:02;8.13;;;5.72;;
71639;SDS011;60912;48.968;10.124;2023-07-24T10:02:28;10.77;;;5.60;;
71639;SDS011;60912;48.968;10.124;2023-07-24T10:04:55;9.45;;;6.38;;
71639;SDS011;60912;48.968;10.124;2023-07-24T10:07:21;10.52;;;6.15;;
71639;SDS011;60912;48.968;10.124;2023-07-24T10:09:48;9.25;;;5.97;;
71639;SDS011;60912;48.968;10.124;2023-07-24T10:12:17;8.33;;;5.83;;
71639;SDS011;60912;48.968;10.124;2023-07-24T10:14:45;7.80;;;5.15;;
71639;SDS011;60912;48.968;10.124;2023-07-24T10:17:13;10.93;;;5.72;;
71639;SDS011;60912;48.968;10.124;2023-07-24T10:19:40;9.03;;;5.60;;
71639;SDS011;60912;48.968;10.124;2023-07-24T10:22:08;9.63;;;5.38;;
71639;SDS011;60912;48.968;10.124;2023-07-24T10:24:46;9.68;;;5.82;;
71639;SDS011;60912;48.968;10.124;2023-07-24T10:27:12;9.02;;;5.60;;
71639;SDS011;60912;48.968;10.124;2023-07-24T10:29:38;8.53;;;4.97;;
71639;SDS011;60912;48.968;10.124;2023-07-24T10:32:04;7.65;;;5.03;;
71639;SDS011;60912;48.968;10.124;2023-07-24T10:35:05;8.40;;;4.93;;
71639;SDS011;60912;48.968;10.124;2023-07-24T10:37:36;6.70;;;4.50;;
71639;SDS011;60912;48.968;10.124;2023-07-24T10:40:03;7.43;;;4.72;;
71639;SDS011;60912;48.968;10.124;2023-07-24T10:42:30;7.35;;;4.60;;
71639;SDS011;60912;48.968;10.124;2023-07-24T10:45:05;7.97;;;4.95;;
71639;SDS011;60912;48.968;10.124;2023-07-24T10:47:32;9.90;;;5.00;;
71639;SDS011;60912;48.968;10.124;2023-07-24T10:49:57;7.13;;;4.72;;
71639;SDS011;60912;48.968;10.124;2023-07-24T10:52:30;10.80;;;5.30;;
71639;SDS011;60912;48.968;10.124;2023-07-24T10:54:59;7.65;;;4.95;;
71639;SDS011;60912;48.968;10.124;2023-07-24T10:57:28;8.98;;;4.97;;
71639;SDS011;60912;48.968;10.124;2023-07-24T10:59:54;7.68;;;4.55;;
71639;SDS011;60912;48.968;10.124;2023-07-24T11:02:20;7.23;;;5.10;;
71639;SDS011;60912;48.968;10.124;2023-07-24T11:04:46;7.50;;;4.78;;
71639;SDS011;60912;48.968;10.124;2023-07-24T11:07:11;9.83;;;5.27;;
71639;SDS011;60912;48.968;10.124;2023-07-24T11:09:38;8.55;;;5.07;;
71639;SDS011;60912;48.968;10.124;2023-07-24T11:12:14;8.13;;;4.80;;
71639;SDS011;60912;48.968;10.124;2023-07-24T11:14:50;9.80;;;5.40;;
71639;SDS011;60912;48.968;10.124;2023-07-24T11:17:19;14.97;;;5.87;;
71639;SDS011;60912;48.968;10.124;2023-07-24T11:19:45;9.30;;;5.53;;
71639;SDS011;60912;48.968;10.124;2023-07-24T11:22:11;8.07;;;5.32;;
71639;SDS011;60912;48.968;10.124;2023-07-24T11:24:46;7.30;;;5.17;;
71639;SDS011;60912;48.968;10.124;2023-07-24T11:27:13;9.77;;;5.18;;
71639;SDS011;60912;48.968;10.124;2023-07-24T11:29:49;11.45;;;5.93;;
71639;SDS011;60912;48.968;10.124;2023-07-24T11:32:24;9.38;;;5.38;;
71639;SDS011;60912;48.968;10.124;2023-07-24T11:34:49;8.23;;;5.47;;
71639;SDS011;60912;48.968;10.124;2023-07-24T11:37:16;9.10;;;5.40;;
71639;SDS011;60912;48.968;10.124;2023-07-24T11:39:43;8.88;;;5.75;;
71639;SDS011;60912;48.968;10.124;2023-07-24T11:42:08;8.47;;;5.30;;
71639;SDS011;60912;48.968;10.124;2023-07-24T11:44:34;8.32;;;5.32;;
71639;SDS011;60912;48.968;10.124;2023-07-24T11:47:05;8.17;;;5.40;;
71639;SDS011;60912;48.968;10.124;2023-07-24T11:49:31;9.35;;;5.47;;
71639;SDS011;60912;48.968;10.124;2023-07-24T11:52:01;9.00;;;5.05;;
71639;SDS011;60912;48.968;10.124;2023-07-24T11:54:29;8.13;;;5.43;;
71639;SDS011;60912;48.968;10.124;2023-07-24T11:56:54;8.40;;;5.55;;
71639;SDS011;60912;48.968;10.124;2023-07-24T11:59:20;8.13;;;5.33;;
71639;SDS011;60912;48.968;10.124;2023-07-24T12:01:45;9.40;;;5.53;;
71639;SDS011;60912;48.968;10.124;2023-07-24T12:04:15;8.15;;;4.90;;
71639;SDS011;60912;48.968;10.124;2023-07-24T12:06:41;8.93;;;5.65;;
71639;SDS011;60912;48.968;10.124;2023-07-24T12:09:06;10.07;;;5.20;;
71639;SDS011;60912;48.968;10.124;2023-07-24T12:11:44;9.13;;;5.60;;
71639;SDS011;60912;48.968;10.124;2023-07-24T12:14:11;8.65;;;5.25;;
71639;SDS011;60912;48.968;10.124;2023-07-24T12:16:36;8.60;;;5.23;;
71639;SDS011;60912;48.968;10.124;2023-07-24T12:19:02;7.70;;;5.05;;
71639;SDS011;60912;48.968;10.124;2023-07-24T12:21:27;11.13;;;5.47;;
71639;SDS011;60912;48.968;10.124;2023-07-24T12:23:53;8.88;;;5.35;;
71639;SDS011;60912;48.968;10.124;2023-07-24T12:26:18;8.23;;;5.60;;
71639;SDS011;60912;48.968;10.124;2023-07-24T12:28:44;10.67;;;5.87;;
71639;SDS011;60912;48.968;10.124;2023-07-24T12:31:09;7.87;;;5.43;;
71639;SDS011;60912;48.968;10.124;2023-07-24T12:33:35;8.32;;;5.90;;
71639;SDS011;60912;48.968;10.124;2023-07-24T12:36:00;9.23;;;5.93;;
71639;SDS011;60912;48.968;10.124;2023-07-24T12:38:26;9.70;;;6.00;;
71639;SDS011;60912;48.968;10.124;2023-07-24T12:40:53;10.03;;;5.83;;
71639;SDS011;60912;48.968;10.124;2023-07-24T12:43:18;9.60;;;6.10;;
71639;SDS011;60912;48.968;10.124;2023-07-24T12:45:44;8.93;;;6.23;;
71639;SDS011;60912;48.968;10.124;2023-07-24T12:48:12;8.50;;;6.00;;
71639;SDS011;60912;48.968;10.124;2023-07-24T12:50:37;11.13;;;6.40;;
71639;SDS011;60912;48.968;10.124;2023-07-24T12:53:02;7.77;;;5.43;;
71639;SDS011;60912;48.968;10.124;2023-07-24T12:55:28;8.68;;;5.93;;
71639;SDS011;60912;48.968;10.124;2023-07-24T12:57:54;8.33;;;5.20;;
71639;SDS011;60912;48.968;10.124;2023-07-24T13:00:21;7.00;;;4.90;;
71639;SDS011;60912;48.968;10.124;2023-07-24T13:02:46;11.07;;;5.88;;
71639;SDS011;60912;48.968;10.124;2023-07-24T13:05:12;7.50;;;5.37;;
71639;SDS011;60912;48.968;10.124;2023-07-24T13:07:37;8.07;;;5.13;;
71639;SDS011;60912;48.968;10.124;2023-07-24T13:10:03;8.83;;;5.10;;
71639;SDS011;60912;48.968;10.124;2023-07-24T13:12:28;9.15;;;4.75;;
71639;SDS011;60912;48.968;10.124;2023-07-24T13:14:54;9.23;;;4.70;;
71639;SDS011;60912;48.968;10.124;2023-07-24T13:17:19;6.87;;;4.47;;
71639;SDS011;60912;48.968;10.124;2023-07-24T13:19:44;7.65;;;5.00;;
71639;SDS011;60912;48.968;10.124;2023-07-24T13:22:10;8.20;;;5.10;;
71639;SDS011;60912;48.968;10.124;2023-07-24T13:24:37;7.55;;;4.22;;
71639;SDS011;60912;48.968;10.124;2023-07-24T13:27:03;6.60;;;4.60;;
71639;SDS011;60912;48.968;10.124;2023-07-24T13:29:29;7.37;;;4.97;;
71639;SDS011;60912;48.968;10.124;2023-07-24T13:31:55;8.68;;;4.60;;
71639;SDS011;60912;48.968;10.124;2023-07-24T13:34:24;8.65;;;4.50;;
71639;SDS011;60912;48.968;10.124;2023-07-24T13:36:50;6.43;;;4.37;;
71639;SDS011;60912;48.968;10.124;2023-07-24T13:39:15;6.32;;;4.18;;
71639;SDS011;60912;48.968;10.124;2023-07-24T13:41:40;8.80;;;4.03;;
71639;SDS011;60912;48.968;10.124;2023-07-24T13:44:06;7.70;;;4.33;;
71639;SDS011;60912;48.968;10.124;2023-07-24T13:46:31;6.80;;;4.23;;
71639;SDS011;60912;48.968;10.124;2023-07-24T13:48:57;6.07;;;4.07;;
71639;SDS011;60912;48.968;10.124;2023-07-24T13:51:22;6.90;;;4.33;;
71639;SDS011;60912;48.968;10.124;2023-07-24T13:53:48;6.40;;;4.27;;
71639;SDS011;60912;48.968;10.124;2023-07-24T13:56:16;6.97;;;4.18;;
71639;SDS011;60912;48.968;10.124;2023-07-24T13:58:43;6.30;;;4.13;;
71639;SDS011;60912;48.968;10.124;2023-07-24T14:01:08;7.07;;;3.90;;
71639;SDS011;60912;48.968;10.124;2023-07-24T14:03:35;6.55;;;4.25;;
71639;SDS011;60912;48.968;10.124;2023-07-24T14:06:00;7.37;;;4.30;;
71639;SDS011;60912;48.968;10.124;2023-07-24T14:08:25;7.53;;;4.37;;
71639;SDS011;60912;48.968;10.124;2023-07-24T14:10:51;6.13;;;3.93;;
71639;SDS011;60912;48.968;10.124;2023-07-24T14:13:16;7.38;;;3.88;;
71639;SDS011;60912;48.968;10.124;2023-07-24T14:15:42;6.17;;;4.33;;
71639;SDS011;60912;48.968;10.124;2023-07-24T14:18:07;6.60;;;4.10;;
71639;SDS011;60912;48.968;10.124;2023-07-24T14:20:32;6.97;;;4.30;;
71639;SDS011;60912;48.968;10.124;2023-07-24T14:22:58;6.75;;;4.60;;
71639;SDS011;60912;48.968;10.124;2023-07-24T14:25:27;6.67;;;4.20;;
71639;SDS011;60912;48.968;10.124;2023-07-24T14:27:52;6.65;;;4.80;;
71639;SDS011;60912;48.968;10.124;2023-07-24T14:30:17;7.53;;;4.40;;
71639;SDS011;60912;48.968;10.124;2023-07-24T14:32:43;6.87;;;4.40;;